Latest Weather Observations for Mildura

IDN60801

Issued at 8:35 pm EST Sunday 20 April 2014 (issued every 30 minutes, with the page automatically refreshed every 10 minutes)

About weather observations | Map of weather stations | Latest weather observations for NSW | Other Formats
Station Details ID: 076031 Name: MILDURA AIRPORT Lat: -34.24 Lon: 142.09 Height: 50.0 m
Data from the previous 72 hours. | See also: Recent months at Mildura
Date/Time
EST
Temp
°C
App
Temp
°C
Dew
Point
Rel
Hum
%
Delta-T
°C
Wind Press
QNH
hPa
Press
MSL
hPa
Rain
since 9 am
mm
Dir
 
Spd
km/h
Gust
km/h
Spd
kts
Gust
kts
20/08:30pm 12.6 12.0 7.5 71 2.5 ESE 0 0 0 0 1019.3 - 0.0
20/08:00pm 13.6 13.1 7.9 68 2.8 E 0 0 0 0 1019.1 1019.0 0.0
20/07:30pm 14.4 13.7 7.0 61 3.6 CALM 0 0 0 0 1018.9 - 0.0
20/07:00pm 14.9 13.7 8.1 64 3.4 S 4 6 2 3 1018.5 1018.4 0.0
20/06:30pm 16.3 14.4 6.7 53 4.7 SSW 6 6 3 3 1018.2 - 0.0
20/06:00pm 18.2 17.5 7.0 48 5.6 CALM 0 0 0 0 1017.8 1017.7 0.0
20/05:30pm 19.6 17.1 5.0 38 7.1 SSW 7 9 4 5 1017.6 - 0.0
20/05:00pm 20.2 17.7 4.8 36 7.5 SSW 7 11 4 6 1017.4 1017.3 0.0
20/04:30pm 20.8 18.5 5.7 37 7.5 S 7 13 4 7 1017.2 - 0.0
20/04:00pm 21.0 18.5 4.6 34 8.0 SSW 7 11 4 6 1017.2 1017.1 0.0
20/03:30pm 21.2 18.7 4.9 34 8.0 WNW 7 17 4 9 1017.3 - 0.0
20/03:00pm 20.7 17.4 4.7 35 7.8 WSW 11 17 6 9 1017.4 1017.3 0.0
20/02:30pm 21.2 18.0 4.9 34 8.0 W 11 20 6 11 1017.3 - 0.0
20/02:00pm 20.9 17.6 4.7 34 7.9 W 11 20 6 11 1017.4 1017.3 0.0
20/01:30pm 19.9 17.9 4.6 36 7.4 N 4 13 2 7 1017.6 - 0.0
20/01:00pm 20.8 17.8 4.3 34 8.0 W 9 17 5 9 1017.9 1017.8 0.0
20/12:30pm 19.8 17.1 3.5 34 7.7 NE 7 15 4 8 1018.6 - 0.0
20/12:00pm 19.4 16.8 4.1 36 7.3 NNW 7 15 4 8 1019.0 1018.9 0.0
20/11:30am 18.5 15.9 4.2 38 6.8 N 7 13 4 7 1019.6 - 0.0
20/11:00am 17.6 15.1 4.5 42 6.2 N 7 11 4 6 1019.7 1019.6 0.0
20/10:30am 16.7 14.6 5.7 48 5.3 NNE 6 9 3 5 1020.0 - 0.0
20/10:00am 15.2 13.1 5.8 53 4.5 NNE 6 9 3 5 1020.1 1020.0 0.0
20/09:30am 14.3 13.5 6.4 59 3.8 CALM 0 0 0 0 1020.0 - 0.0
20/09:00am 13.3 12.5 6.4 63 3.3 CALM 0 0 0 0 1020.1 1020.0 0.0
20/08:30am 12.3 10.8 6.6 68 2.7 NNE 4 7 2 4 1019.8 - 0.0
20/08:00am 11.6 9.9 7.7 77 1.9 NNE 6 7 3 4 1019.5 1019.4 0.0
20/07:30am 11.1 9.3 7.8 80 1.6 NNE 7 9 4 5 1019.3 - 0.0
20/07:00am 10.9 10.3 7.3 78 1.7 CALM 0 0 0 0 1019.1 1019.0 0.0
20/06:30am 10.8 9.0 7.0 77 1.8 N 6 9 3 5 1018.7 - 0.0
20/06:00am 10.2 9.7 7.7 84 1.2 E 0 0 0 0 1018.3 1018.2 0.0
20/05:30am 10.2 9.6 7.5 83 1.3 CALM 0 0 0 0 1018.3 - 0.0
20/05:00am 9.8 9.1 7.0 83 1.3 CALM 0 0 0 0 1018.0 1017.9 0.0
20/04:30am 9.9 9.3 7.2 83 1.3 CALM 0 0 0 0 1017.8 - 0.0
20/04:00am 9.6 8.9 7.1 84 1.2 CALM 0 0 0 0 1017.9 1017.8 0.0
20/03:30am 9.5 8.8 6.9 84 1.2 CALM 0 0 0 0 1018.1 - 0.0
20/03:00am 8.9 7.4 6.8 87 1.0 NNE 4 6 2 3 1018.0 1017.9 0.0
20/02:30am 8.0 6.4 6.2 88 0.8 NNE 4 6 2 3 1018.1 - 0.0
20/02:00am 8.2 6.1 6.0 86 1.0 N 6 6 3 3 1018.1 1018.0 0.0
20/01:30am 7.8 5.7 5.8 87 0.9 NNE 6 7 3 4 1018.2 - 0.0
20/01:00am 8.0 6.1 6.5 90 0.7 NNE 6 7 3 4 1018.1 1018.0 0.0
20/12:30am 8.0 5.9 6.5 90 0.7 NE 7 9 4 5 1018.4 - 0.0
20/12:00am 8.4 6.5 6.7 89 0.8 N 6 7 3 4 1018.4 1018.3 0.0
 
Date/Time
EST
Temp
°C
App
Temp
°C
Dew
Point
Rel
Hum
%
Delta-T
°C
Wind Press
QNH
hPa
Press
MSL
hPa
Rain
since 9 am
mm
Dir
 
Spd
km/h
Gust
km/h
Spd
kts
Gust
kts
19/11:30pm 8.3 6.6 6.1 86 1.0 N 4 7 2 4 1018.7 - 0.0
19/11:00pm 8.8 7.9 6.2 84 1.2 CALM 0 0 0 0 1018.9 1018.8 0.0
19/10:30pm 9.0 8.1 5.9 81 1.4 CALM 0 0 0 0 1019.2 - 0.0
19/10:00pm 9.3 8.3 5.8 79 1.6 CALM 0 0 0 0 1019.3 1019.2 0.0
19/09:30pm 9.5 8.5 5.8 78 1.7 CALM 0 0 0 0 1019.4 - 0.0
19/09:00pm 10.3 9.2 5.0 69 2.4 CALM 0 0 0 0 1019.4 1019.3 0.0
19/08:30pm 10.8 9.0 5.3 69 2.5 N 4 7 2 4 1019.3 - 0.0
19/08:00pm 11.7 9.6 5.7 66 2.8 NNW 6 7 3 4 1019.3 1019.2 0.0
19/07:30pm 12.0 9.7 5.0 62 3.2 N 6 7 3 4 1019.2 - 0.0
19/07:00pm 12.4 10.9 4.8 60 3.5 ESE 2 9 1 5 1019.1 1019.0 0.0
19/06:30pm 13.6 12.8 6.3 61 3.5 CALM 0 0 0 0 1019.0 - 0.0
19/06:00pm 15.9 13.6 4.6 47 5.3 WSW 6 7 3 4 1018.9 1018.8 0.0
19/05:30pm 17.2 14.4 3.0 38 6.5 SW 7 11 4 6 1018.8 - 0.0
19/05:00pm 17.5 14.2 2.6 37 6.8 SW 9 17 5 9 1018.8 1018.7 0.0
19/04:30pm 17.9 14.2 2.3 35 7.1 SW 11 17 6 9 1018.9 - 0.0
19/04:00pm 17.8 14.6 2.8 36 6.9 WSW 9 17 5 9 1019.2 1019.1 0.0
19/03:30pm 17.7 15.0 2.6 36 6.9 S 6 19 3 10 1019.4 - 0.0
19/03:00pm 17.8 14.1 2.4 35 7.0 WSW 11 17 6 9 1019.5 1019.4 0.0
19/02:30pm 18.1 15.4 3.5 38 6.8 WSW 7 17 4 9 1019.7 - 0.0
19/02:00pm 17.1 13.5 2.9 38 6.5 S 11 17 6 9 1019.9 1019.8 0.0
19/01:30pm 17.8 14.7 3.4 38 6.7 S 9 15 5 8 1020.3 - 0.0
19/01:00pm 17.0 13.1 3.6 41 6.2 S 13 19 7 10 1021.0 1020.9 0.0
19/12:30pm 16.7 13.9 3.2 40 6.2 N 7 15 4 8 1021.6 - 0.0
19/12:00pm 15.6 12.8 3.0 43 5.7 SSW 7 19 4 10 1022.2 1022.1 0.0
19/11:30am 16.2 12.7 3.3 42 5.9 S 11 17 6 9 1022.7 - 0.0
19/11:00am 15.7 12.4 2.5 41 5.9 S 9 17 5 9 1023.1 1023.0 0.0
19/10:30am 15.0 12.4 4.1 48 5.0 SW 7 13 4 7 1023.0 - 0.0
19/10:00am 14.4 12.0 4.4 51 4.6 SSE 6 9 3 5 1023.4 1023.3 0.0
19/09:30am 13.8 11.8 6.3 60 3.6 ESE 6 9 3 5 1023.3 - 0.0
19/09:00am 11.6 9.0 6.0 68 2.6 SSE 9 15 5 8 1022.9 1022.8 0.0
19/08:30am 9.7 6.7 6.0 78 1.7 S 11 15 6 8 1022.8 - 0.0
19/08:00am 7.3 4.8 5.0 85 1.0 SSW 7 9 4 5 1022.9 1022.8 0.0
19/07:30am 5.7 4.4 4.3 91 0.6 CALM 0 0 0 0 1022.6 - 0.0
19/07:00am 5.4 2.9 4.0 91 0.6 SSW 6 9 3 5 1022.6 1022.5 0.0
19/06:30am 5.9 2.9 4.3 89 0.7 S 9 13 5 7 1022.3 - 0.0
19/06:00am 6.1 3.5 4.2 88 0.8 SSW 7 9 4 5 1022.1 1022.0 0.0
19/05:30am 6.5 3.5 4.2 85 1.0 SSW 9 11 5 6 1021.9 - 0.0
19/05:00am 6.8 3.8 4.2 83 1.1 SSW 9 11 5 6 1021.7 1021.6 0.0
19/04:30am 7.0 4.0 4.2 82 1.2 SSW 9 11 5 6 1021.6 - 0.0
19/04:00am 7.0 4.1 4.5 84 1.1 SSW 9 11 5 6 1021.5 1021.4 0.0
19/03:30am 7.3 4.7 4.3 81 1.3 S 7 9 4 5 1021.4 - 0.0
19/03:00am 8.0 5.0 4.3 77 1.6 S 9 11 5 6 1021.5 1021.4 0.0
19/02:30am 8.6 5.6 4.0 73 2.0 S 9 13 5 7 1021.6 - 0.0
19/02:00am 8.8 5.4 4.0 72 2.1 S 11 13 6 7 1021.6 1021.5 0.0
19/01:30am 9.3 5.5 3.8 68 2.4 S 13 17 7 9 1021.6 - 0.0
19/01:00am 9.5 5.7 3.8 67 2.5 SSW 13 17 7 9 1021.7 1021.6 0.0
19/12:30am 10.1 6.6 3.4 63 2.9 SSW 11 15 6 8 1021.7 - 0.0
19/12:00am 10.6 7.0 3.2 60 3.2 SSW 11 19 6 10 1021.6 1021.5 0.0
 
Date/Time
EST
Temp
°C
App
Temp
°C
Dew
Point
Rel
Hum
%
Delta-T
°C
Wind Press
QNH
hPa
Press
MSL
hPa
Rain
since 9 am
mm
Dir
 
Spd
km/h
Gust
km/h
Spd
kts
Gust
kts
18/11:30pm 10.8 7.2 3.2 59 3.3 SSW 11 15 6 8 1021.5 - 0.0
18/11:00pm 11.5 8.2 2.7 54 3.8 SSW 9 13 5 7 1021.6 1021.5 0.0
18/10:30pm 12.2 9.0 3.1 53 4.0 SSW 9 11 5 6 1021.7 - 0.0
18/10:00pm 13.0 9.8 3.1 51 4.4 SSW 9 13 5 7 1021.6 1021.5 0.0
18/09:30pm 14.0 10.4 2.7 46 5.0 S 11 17 6 9 1021.4 - 0.0
18/09:00pm 15.1 10.9 1.6 40 5.9 SSW 13 20 7 11 1021.2 1021.1 0.0
18/08:30pm 14.6 11.4 3.3 46 5.1 SSW 9 13 5 7 1020.9 - 0.0
18/08:00pm 14.8 12.0 5.0 52 4.6 S 9 13 5 7 1020.8 1020.7 0.0
18/07:30pm 15.6 12.7 4.7 48 5.1 SSW 9 13 5 7 1020.6 - 0.0
18/07:00pm 16.6 13.4 5.3 47 5.4 SSW 11 15 6 8 1020.3 1020.2 0.0
18/06:30pm 17.6 14.2 5.9 46 5.7 SSW 13 17 7 9 1019.8 - 0.0
18/06:00pm 18.7 15.4 6.2 44 6.2 SW 13 22 7 12 1019.5 1019.4 0.0
18/05:30pm 20.0 15.1 5.0 37 7.3 SW 20 30 11 16 1019.2 - 0.0
18/05:00pm 20.7 16.4 7.7 43 6.7 SSW 20 33 11 18 1018.9 1018.8 0.0
18/04:30pm 21.1 17.3 9.0 46 6.4 SSW 19 35 10 19 1018.6 - 0.0
18/04:00pm 21.0 17.1 9.4 47 6.2 SSW 20 32 11 17 1018.3 1018.2 0.0
18/03:30pm 21.1 17.6 10.9 52 5.6 SW 20 32 11 17 1018.2 - 0.0
18/03:00pm 21.5 17.8 10.3 49 6.1 SW 20 32 11 17 1018.0 1017.9 0.0
18/02:30pm 21.3 17.5 11.2 52 5.6 SW 22 32 12 17 1018.0 - 0.0
18/02:00pm 21.8 18.2 10.5 48 6.2 SSW 20 26 11 14 1017.9 1017.8 0.0
18/01:30pm 22.1 18.7 10.6 48 6.3 SW 19 30 10 16 1018.0 - 0.0
18/01:00pm 22.1 18.0 10.2 46 6.5 WSW 22 32 12 17 1018.4 1018.3 0.0
18/12:30pm 21.3 17.0 9.5 47 6.3 SW 22 35 12 19 1018.8 - 0.0
18/12:00pm 20.9 17.4 10.2 50 5.8 SW 19 28 10 15 1019.3 1019.2 0.0
18/11:30am 21.1 17.4 10.0 49 6.0 SW 20 32 11 17 1019.4 - 0.0
18/11:00am 21.0 17.1 10.8 52 5.6 SW 22 35 12 19 1019.4 1019.3 0.0
18/10:30am 20.4 17.2 11.8 57 4.8 WSW 20 32 11 17 1019.5 - 0.0
18/10:00am 19.7 16.7 12.6 63 4.0 SW 20 30 11 16 1019.5 1019.4 0.0
18/09:30am 19.0 15.8 11.9 63 3.9 SW 20 32 11 17 1019.5 - 0.0
18/09:00am 18.4 16.0 11.4 63 3.8 SW 15 24 8 13 1019.4 1019.3 0.0
18/08:30am 16.6 15.3 11.4 71 2.8 WSW 9 13 5 7 1019.2 - 0.0
18/08:00am 14.7 13.8 10.5 76 2.2 W 6 9 3 5 1018.9 1018.8 0.0
18/07:30am 12.4 11.3 9.9 85 1.3 WSW 6 7 3 4 1018.8 - 0.0
18/07:00am 12.4 10.5 9.2 81 1.6 WSW 9 11 5 6 1018.8 1018.7 0.0
18/06:30am 12.5 10.7 9.3 81 1.6 W 9 11 5 6 1018.6 - 0.0
18/06:00am 12.8 11.0 9.5 80 1.7 W 9 11 5 6 1018.4 1018.3 0.0
18/05:30am 13.1 11.2 9.1 77 2.0 WNW 9 9 5 5 1018.3 - 0.0
18/05:00am 12.1 10.6 9.3 83 1.4 WSW 7 11 4 6 1018.2 1018.1 0.0
18/04:30am 12.6 11.7 10.7 88 1.0 N 6 7 3 4 1017.8 - 0.0
18/04:00am 13.2 11.8 9.5 78 1.9 N 7 9 4 5 1017.8 1017.7 0.0
18/03:30am 13.2 11.9 10.1 81 1.6 N 7 9 4 5 1018.0 - 0.0
18/03:00am 12.3 11.6 10.2 87 1.1 N 4 6 2 3 1018.1 1018.0 0.0
18/02:30am 12.2 11.2 10.3 88 1.0 N 6 7 3 4 1018.3 - 0.0
18/02:00am 13.2 11.9 10.1 81 1.6 N 7 9 4 5 1018.5 1018.4 0.0
18/01:30am 12.9 11.5 9.6 80 1.7 N 7 7 4 4 1018.7 - 0.0
18/01:00am 12.8 11.6 9.7 81 1.6 NNW 6 7 3 4 1018.9 1018.8 0.0
18/12:30am 13.1 11.4 9.8 80 1.7 WNW 9 9 5 5 1019.3 - 0.0
18/12:00am 13.1 12.0 9.8 80 1.7 NNW 6 7 3 4 1019.4 1019.3 0.0
 
Date/Time
EST
Temp
°C
App
Temp
°C
Dew
Point
Rel
Hum
%
Delta-T
°C
Wind Press
QNH
hPa
Press
MSL
hPa
Rain
since 9 am
mm
Dir
 
Spd
km/h
Gust
km/h
Spd
kts
Gust
kts
17/11:30pm 13.0 13.1 10.3 84 1.4 CALM 0 0 0 0 1019.6 - 0.0
17/11:00pm 13.2 13.4 10.5 84 1.4 CALM 0 0 0 0 1019.8 1019.7 0.0
17/10:30pm 14.0 14.3 10.8 81 1.7 CALM 0 0 0 0 1020.1 - 0.0
17/10:00pm 14.2 14.3 10.2 77 2.1 CALM 0 0 0 0 1020.2 1020.1 0.0
17/09:30pm 14.2 14.1 9.5 73 2.4 CALM 0 0 0 0 1020.2 - 0.0
17/09:00pm 14.8 14.7 9.6 71 2.7 CALM 0 0 0 0 1020.2 1020.1 0.0

Other Formats:

Comma delimited format used in spreadsheet applications
http://www.bom.gov.au/fwo/IDN60801/IDN60801.94693.axf

JavaScript Object Notation format (JSON) in row-major order
http://www.bom.gov.au/fwo/IDN60801/IDN60801.94693.json